Time;durP1;ratioP1;P1;durP2;ratioP2;P2;SDS_P1;SDS_P2;PMS_P1;PMS_P2;Temp;Humidity;BMP_temperature;BMP_pressure;BME280_temperature;BME280_humidity;BME280_pressure;Samples;Min_cycle;Max_cycle;Signal;HPM_P1;HPM_P2
2023/09/14 00:01:22;;;;;;;7.22;1.60;;;;;;;12.84;100.00;101247.28;5163845;28;20097;-76
2023/09/14 00:03:53;;;;;;;8.82;2.20;;;;;;;12.70;100.00;101242.50;5165938;28;20490;-75
2023/09/14 00:06:23;;;;;;;5.38;1.80;;;;;;;12.78;100.00;101242.25;5165624;28;20058;-75
2023/09/14 00:08:53;;;;;;;5.75;1.55;;;;;;;12.65;100.00;101241.78;5160705;28;20477;-75
2023/09/14 00:11:24;;;;;;;5.07;1.60;;;;;;;12.53;100.00;101255.31;5164546;28;20041;-76
2023/09/14 00:13:54;;;;;;;6.53;1.60;;;;;;;12.50;100.00;101254.56;5165316;28;20034;-75
2023/09/14 00:16:25;;;;;;;5.07;1.30;;;;;;;12.53;100.00;101252.69;5161796;28;20109;-75
2023/09/14 00:18:55;;;;;;;7.10;1.50;;;;;;;12.59;100.00;101254.22;5162531;28;20088;-75
2023/09/14 00:21:25;;;;;;;4.75;1.83;;;;;;;12.63;100.00;101254.09;5162640;28;20109;-75
2023/09/14 00:23:56;;;;;;;7.78;2.03;;;;;;;12.48;100.00;101251.97;5161796;28;20026;-75
2023/09/14 00:26:26;;;;;;;10.63;2.05;;;;;;;12.51;100.00;101251.03;5162255;28;20182;-75
2023/09/14 00:28:56;;;;;;;6.43;1.50;;;;;;;12.68;100.00;101249.56;5145969;28;20053;-74
2023/09/14 00:31:27;;;;;;;7.38;1.50;;;;;;;12.75;100.00;101253.69;5161812;28;20076;-75
2023/09/14 00:33:57;;;;;;;8.38;1.98;;;;;;;12.81;100.00;101253.47;5145512;28;20454;-75
2023/09/14 00:36:27;;;;;;;5.88;1.73;;;;;;;12.84;100.00;101253.38;5160903;28;20100;-75
2023/09/14 00:38:58;;;;;;;6.50;1.77;;;;;;;12.77;100.00;101259.75;5149729;28;20391;-76
2023/09/14 00:41:28;;;;;;;8.00;1.83;;;;;;;12.66;100.00;101267.09;5155527;28;20079;-73
2023/09/14 00:43:58;;;;;;;6.60;1.75;;;;;;;12.66;100.00;101259.22;5144099;28;20554;-76
2023/09/14 00:46:29;;;;;;;6.93;1.63;;;;;;;12.69;100.00;101264.41;5142760;28;20041;-74
2023/09/14 00:49:01;;;;;;;6.63;1.60;;;;;;;12.64;100.00;101250.56;5163540;28;20034;-75
2023/09/14 00:51:32;;;;;;;4.60;1.40;;;;;;;12.50;100.00;101252.78;5160282;28;20038;-75
2023/09/14 00:54:03;;;;;;;6.18;1.67;;;;;;;12.50;100.00;101255.41;5160096;28;20072;-72
2023/09/14 00:56:33;;;;;;;4.65;1.60;;;;;;;12.61;100.00;101258.53;5143306;28;20048;-76
2023/09/14 00:59:05;;;;;;;9.18;1.52;;;;;;;12.51;100.00;101257.13;5162280;28;20113;-72
2023/09/14 01:01:36;;;;;;;5.30;1.33;;;;;;;12.52;100.00;101256.22;5162077;28;20124;-76
2023/09/14 01:04:06;;;;;;;14.32;1.80;;;;;;;12.33;100.00;101254.25;5163009;28;20562;-75
2023/09/14 01:06:37;;;;;;;7.25;1.48;;;;;;;12.30;100.00;101251.72;5158883;28;20037;-75
2023/09/14 01:09:07;;;;;;;10.35;2.08;;;;;;;12.17;100.00;101251.25;5159403;28;20021;-75
2023/09/14 01:11:37;;;;;;;5.45;1.52;;;;;;;12.08;100.00;101248.03;5159256;28;20033;-76
2023/09/14 01:14:17;;;;;;;4.65;1.35;;;;;;;12.18;100.00;101250.34;5160661;28;21283;-76
2023/09/14 01:17:01;;;;;;;9.57;1.55;;;;;;;12.04;100.00;101257.78;5143858;28;20606;-76
2023/09/14 01:19:41;;;;;;;5.65;1.30;;;;;;;11.85;100.00;101255.75;5161340;28;20394;-75
2023/09/14 01:22:30;;;;;;;3.38;1.27;;;;;;;11.89;100.00;101268.72;5160781;28;20026;-75
2023/09/14 01:25:23;;;;;;;5.38;1.58;;;;;;;11.89;100.00;101271.31;5161824;28;20026;-75
2023/09/14 01:28:05;;;;;;;6.60;1.50;;;;;;;12.01;100.00;101267.47;5161191;28;20043;-75
2023/09/14 01:30:39;;;;;;;7.13;1.40;;;;;;;12.02;100.00;101274.44;5163089;28;20534;-75
2023/09/14 01:33:11;;;;;;;9.70;1.60;;;;;;;11.97;100.00;101261.47;5141312;28;20673;-74
2023/09/14 01:35:57;;;;;;;6.35;1.30;;;;;;;11.92;100.00;101273.00;5140674;28;20033;-76
2023/09/14 01:38:30;;;;;;;6.18;1.10;;;;;;;12.01;100.00;101270.97;5159895;28;20498;-72
2023/09/14 01:41:01;;;;;;;7.60;1.50;;;;;;;12.08;100.00;101269.00;5165369;28;20037;-76
2023/09/14 01:43:32;;;;;;;5.70;1.20;;;;;;;12.06;100.00;101270.81;5164148;28;20394;-75
2023/09/14 01:46:07;;;;;;;3.05;1.23;;;;;;;12.11;100.00;101272.38;5147313;28;20030;-76
2023/09/14 01:48:37;;;;;;;6.40;1.75;;;;;;;12.07;100.00;101267.28;5147831;28;20084;-74
2023/09/14 01:51:07;;;;;;;6.30;1.65;;;;;;;11.99;100.00;101275.38;5160505;28;20034;-72
2023/09/14 01:53:38;;;;;;;6.72;1.50;;;;;;;12.06;100.00;101276.03;5166752;28;20022;-74
2023/09/14 01:56:08;;;;;;;7.10;1.65;;;;;;;12.14;100.00;101269.66;5163683;28;20194;-74
2023/09/14 01:58:38;;;;;;;4.80;1.35;;;;;;;12.04;100.00;101281.34;5151556;28;20104;-76
2023/09/14 02:01:09;;;;;;;7.18;1.60;;;;;;;11.89;100.00;101273.06;5161508;28;20080;-74
2023/09/14 02:03:39;;;;;;;5.93;1.60;;;;;;;11.62;100.00;101277.34;5167292;28;20502;-75
2023/09/14 02:06:09;;;;;;;4.28;1.25;;;;;;;11.68;100.00;101274.59;5164110;28;20038;-73
2023/09/14 02:08:40;;;;;;;5.10;1.30;;;;;;;11.77;100.00;101274.31;5158022;28;20022;-75
2023/09/14 02:11:13;;;;;;;6.00;1.50;;;;;;;11.60;100.00;101276.53;5165492;28;20030;-76
2023/09/14 02:13:43;;;;;;;4.60;1.30;;;;;;;11.52;100.00;101277.63;5148171;28;20503;-75
2023/09/14 02:16:13;;;;;;;4.35;1.10;;;;;;;11.44;100.00;101275.22;5166299;28;20076;-75
2023/09/14 02:18:44;;;;;;;5.13;1.38;;;;;;;11.29;100.00;101278.25;5169062;28;20281;-75
2023/09/14 02:21:16;;;;;;;4.82;1.30;;;;;;;11.17;100.00;101283.84;5162949;28;20030;-76
2023/09/14 02:23:46;;;;;;;5.70;1.27;;;;;;;11.20;100.00;101295.97;5166183;28;20030;-76
2023/09/14 02:26:17;;;;;;;3.05;1.00;;;;;;;11.46;100.00;101288.28;5162947;28;20286;-75
2023/09/14 02:28:47;;;;;;;5.53;1.38;;;;;;;11.44;100.00;101290.94;5169329;28;20038;-76
2023/09/14 02:31:19;;;;;;;5.50;1.30;;;;;;;11.49;100.00;101298.66;5163131;28;20079;-76
2023/09/14 02:33:49;;;;;;;5.90;1.63;;;;;;;11.36;100.00;101295.53;5142074;28;20125;-72
2023/09/14 02:36:21;;;;;;;5.53;1.10;;;;;;;11.39;100.00;101300.69;5160841;28;20105;-75
2023/09/14 02:38:51;;;;;;;8.07;1.50;;;;;;;11.35;100.00;101296.44;5157070;28;20451;-73
2023/09/14 02:41:22;;;;;;;6.07;1.27;;;;;;;11.34;100.00;101291.22;5158083;28;20062;-75
2023/09/14 02:43:52;;;;;;;3.17;1.40;;;;;;;11.20;100.00;101299.47;5156352;28;20081;-73
2023/09/14 02:46:22;;;;;;;3.15;1.17;;;;;;;11.20;100.00;101299.47;5155304;28;20490;-76
2023/09/14 02:48:53;;;;;;;4.03;1.70;;;;;;;11.32;100.00;101287.78;5159503;28;20281;-76
2023/09/14 02:51:24;;;;;;;6.47;1.40;;;;;;;11.25;100.00;101300.19;5163229;28;20069;-76
2023/09/14 02:53:54;;;;;;;3.60;1.10;;;;;;;11.40;100.00;101296.28;5168247;28;20084;-75
2023/09/14 02:56:24;;;;;;;8.50;1.05;;;;;;;11.30;100.00;101298.28;5161347;28;20310;-75
2023/09/14 02:58:55;;;;;;;4.32;1.20;;;;;;;11.14;100.00;101301.38;5145342;28;20056;-75
2023/09/14 03:01:25;;;;;;;3.50;1.35;;;;;;;11.10;100.00;101299.75;5167089;28;20168;-75
2023/09/14 03:03:55;;;;;;;5.38;1.25;;;;;;;11.29;100.00;101296.56;5166718;28;20488;-76
2023/09/14 03:06:26;;;;;;;2.72;1.08;;;;;;;11.26;100.00;101298.44;5145406;28;20033;-75
2023/09/14 03:08:57;;;;;;;6.70;1.20;;;;;;;11.18;100.00;101303.00;5167316;28;20103;-74
2023/09/14 03:11:27;;;;;;;5.40;1.42;;;;;;;11.02;100.00;101301.69;5164912;28;20037;-75
2023/09/14 03:13:57;;;;;;;5.32;0.82;;;;;;;11.08;100.00;101305.00;5165236;28;20025;-76
2023/09/14 03:16:28;;;;;;;2.45;1.10;;;;;;;10.91;100.00;101302.84;5163370;28;20029;-72
2023/09/14 03:18:58;;;;;;;2.70;0.90;;;;;;;10.90;100.00;101301.16;5162768;28;20037;-74
2023/09/14 03:21:29;;;;;;;1.23;0.65;;;;;;;10.64;100.00;101313.97;5146310;28;20034;-75
2023/09/14 03:23:59;;;;;;;3.45;0.45;;;;;;;10.59;100.00;101310.63;5168170;28;20057;-75
2023/09/14 03:26:30;;;;;;;2.10;0.57;;;;;;;10.57;100.00;101312.44;5145107;28;20027;-76
2023/09/14 03:29:01;;;;;;;3.35;0.60;;;;;;;10.62;100.00;101310.56;5147658;28;20048;-75
2023/09/14 03:31:32;;;;;;;3.22;0.68;;;;;;;10.58;100.00;101311.53;5157532;28;20092;-76
2023/09/14 03:34:02;;;;;;;3.28;0.80;;;;;;;10.58;100.00;101314.13;5146462;28;20495;-76
2023/09/14 03:36:33;;;;;;;5.47;1.00;;;;;;;10.69;100.00;101312.16;5164696;28;20034;-75
2023/09/14 03:39:04;;;;;;;2.05;0.77;;;;;;;10.56;100.00;101315.94;5164004;28;20069;-74
2023/09/14 03:41:34;;;;;;;4.07;0.90;;;;;;;10.47;100.00;101319.63;5141609;28;20029;-75
2023/09/14 03:44:05;;;;;;;5.35;1.05;;;;;;;10.33;100.00;101318.22;5166513;28;20025;-75
2023/09/14 03:46:35;;;;;;;5.43;1.00;;;;;;;10.34;100.00;101322.56;5162232;28;20110;-75
2023/09/14 03:49:06;;;;;;;3.47;0.90;;;;;;;10.31;100.00;101325.25;5163003;28;20487;-74
2023/09/14 03:51:37;;;;;;;3.88;0.95;;;;;;;10.34;100.00;101320.78;5161419;28;20213;-76
2023/09/14 03:54:08;;;;;;;6.60;1.23;;;;;;;10.27;100.00;101331.41;5166169;28;20037;-75
2023/09/14 03:56:39;;;;;;;3.28;1.63;;;;;;;10.23;100.00;101327.16;5160537;28;20113;-75
2023/09/14 03:59:09;;;;;;;7.57;1.35;;;;;;;10.34;100.00;101326.03;5161060;28;20105;-76
2023/09/14 04:01:39;;;;;;;6.90;1.48;;;;;;;10.41;100.00;101329.34;5166116;28;20104;-75
2023/09/14 04:04:10;;;;;;;5.28;1.42;;;;;;;10.57;100.00;101328.97;5168836;28;20627;-76
2023/09/14 04:06:40;;;;;;;4.97;1.50;;;;;;;10.68;100.00;101328.72;5142088;28;20437;-76
2023/09/14 04:09:10;;;;;;;4.75;1.60;;;;;;;10.73;100.00;101332.06;5163000;28;20061;-75
2023/09/14 04:11:41;;;;;;;4.13;1.30;;;;;;;10.58;100.00;101333.31;5160813;28;20050;-75
2023/09/14 04:14:11;;;;;;;4.00;1.00;;;;;;;10.35;100.00;101342.56;5164073;28;20423;-75
2023/09/14 04:16:43;;;;;;;4.82;1.40;;;;;;;10.40;100.00;101341.59;5164202;28;20412;-75
2023/09/14 04:19:14;;;;;;;2.83;1.10;;;;;;;10.28;100.00;101351.41;5150348;28;20021;-75
2023/09/14 04:21:45;;;;;;;3.10;1.30;;;;;;;10.23;100.00;101348.06;5161041;28;20587;-75
2023/09/14 04:24:15;;;;;;;2.67;1.20;;;;;;;10.42;100.00;101352.84;5164084;28;20033;-76
2023/09/14 04:26:46;;;;;;;1.98;0.90;;;;;;;10.34;100.00;101359.97;5147272;28;20248;-75
2023/09/14 04:29:17;;;;;;;3.70;0.80;;;;;;;10.48;100.00;101362.31;5157925;28;20539;-76
2023/09/14 04:31:47;;;;;;;4.65;1.00;;;;;;;10.29;100.00;101368.81;5151352;28;20503;-75
2023/09/14 04:34:17;;;;;;;1.30;0.80;;;;;;;10.25;100.00;101356.72;5162174;28;20034;-76
2023/09/14 04:36:48;;;;;;;3.05;1.10;;;;;;;10.20;100.00;101359.41;5160138;28;20057;-76
2023/09/14 04:39:18;;;;;;;3.35;0.90;;;;;;;10.16;100.00;101363.00;5141814;28;20033;-74
2023/09/14 04:41:49;;;;;;;5.93;1.33;;;;;;;10.09;100.00;101366.66;5159805;28;20122;-75
2023/09/14 04:44:19;;;;;;;2.95;1.15;;;;;;;10.15;100.00;101361.28;5157253;28;20109;-76
2023/09/14 04:46:49;;;;;;;3.65;1.40;;;;;;;10.18;100.00;101365.59;5161827;28;20456;-76
2023/09/14 04:49:20;;;;;;;4.68;1.30;;;;;;;10.19;100.00;101364.69;5159398;28;20417;-75
2023/09/14 04:51:50;;;;;;;8.05;1.23;;;;;;;10.18;100.00;101363.81;5158782;28;20029;-75
2023/09/14 04:54:20;;;;;;;4.28;1.40;;;;;;;10.17;100.00;101358.66;5162574;28;20027;-75
2023/09/14 04:56:50;;;;;;;2.97;1.40;;;;;;;10.16;100.00;101356.94;5157272;28;20265;-76
2023/09/14 04:59:24;;;;;;;4.18;1.00;;;;;;;10.38;100.00;101364.25;5161095;28;20058;-76
2023/09/14 05:01:54;;;;;;;3.45;1.42;;;;;;;10.54;100.00;101360.38;5163281;28;20041;-75
2023/09/14 05:04:24;;;;;;;4.45;1.52;;;;;;;10.41;100.00;101369.44;5149403;28;20529;-75
2023/09/14 05:06:55;;;;;;;3.97;1.40;;;;;;;10.50;100.00;101357.91;5165626;28;20116;-73
2023/09/14 05:09:25;;;;;;;4.97;1.60;;;;;;;10.43;100.00;101366.75;5149109;28;20678;-73
2023/09/14 05:11:55;;;;;;;3.72;1.27;;;;;;;10.32;100.00;101368.78;5165257;28;20116;-76
2023/09/14 05:14:26;;;;;;;3.35;1.10;;;;;;;10.50;100.00;101368.34;5160089;28;20126;-72
2023/09/14 05:16:56;;;;;;;5.75;1.30;;;;;;;10.53;100.00;101378.75;5230383;23;20137;-72
2023/09/14 05:19:27;;;;;;;17.65;1.85;;;;;;;10.59;100.00;101375.97;5217002;28;20039;-72
2023/09/14 05:21:58;;;;;;;3.10;1.17;;;;;;;10.38;100.00;101373.84;5221539;28;20033;-73
2023/09/14 05:24:28;;;;;;;5.22;1.48;;;;;;;10.37;100.00;101375.59;5219693;28;20078;-71
2023/09/14 05:27:00;;;;;;;2.72;1.13;;;;;;;10.37;100.00;101375.59;5203921;28;20079;-72
2023/09/14 05:29:30;;;;;;;7.60;1.58;;;;;;;10.60;100.00;101364.63;5199157;28;20028;-73
2023/09/14 05:32:01;;;;;;;3.20;1.27;;;;;;;10.70;100.00;101364.38;5217548;28;20032;-73
2023/09/14 05:34:31;;;;;;;3.92;1.17;;;;;;;10.93;100.00;101366.44;5215455;28;20083;-73
2023/09/14 05:37:01;;;;;;;3.65;1.30;;;;;;;10.82;100.00;101371.09;5217922;28;20035;-72
2023/09/14 05:39:32;;;;;;;6.10;1.42;;;;;;;10.91;100.00;101378.69;5216415;28;20029;-73
2023/09/14 05:42:02;;;;;;;6.93;1.60;;;;;;;10.99;100.00;101375.00;5215896;28;20021;-72
2023/09/14 05:44:33;;;;;;;6.28;1.70;;;;;;;11.14;100.00;101375.47;5216250;28;20108;-73
2023/09/14 05:47:03;;;;;;;5.43;1.20;;;;;;;10.96;100.00;101374.22;5199210;28;20286;-73
2023/09/14 05:49:34;;;;;;;6.13;1.30;;;;;;;11.14;100.00;101375.47;5215311;28;20025;-73
2023/09/14 05:52:04;;;;;;;6.85;1.85;;;;;;;11.37;100.00;101373.16;5214968;28;20029;-73
2023/09/14 05:54:36;;;;;;;11.30;2.08;;;;;;;11.41;100.00;101379.16;5214027;28;20031;-73
2023/09/14 05:57:07;;;;;;;5.95;1.85;;;;;;;11.42;100.00;101366.03;5216075;28;20037;-73
2023/09/14 05:59:38;;;;;;;6.28;2.10;;;;;;;11.57;100.00;101376.13;5214277;28;20024;-73
2023/09/14 06:02:08;;;;;;;6.55;1.83;;;;;;;11.67;100.00;101377.59;5215777;28;20025;-73
2023/09/14 06:04:40;;;;;;;5.32;1.70;;;;;;;11.76;100.00;101379.97;5214894;28;20071;-73
2023/09/14 06:07:10;;;;;;;9.27;1.85;;;;;;;11.86;100.00;101383.19;5214369;28;20044;-73
2023/09/14 06:09:40;;;;;;;6.82;1.85;;;;;;;12.05;100.00;101379.13;5216588;28;20021;-73
2023/09/14 06:12:11;;;;;;;6.25;2.05;;;;;;;12.16;100.00;101377.91;5217204;28;20021;-73
2023/09/14 06:14:41;;;;;;;9.80;1.98;;;;;;;12.18;100.00;101380.50;5216425;28;20071;-73
2023/09/14 06:17:12;;;;;;;6.78;2.08;;;;;;;12.18;100.00;101381.38;5218326;28;21659;-73
2023/09/14 06:19:42;;;;;;;10.60;1.60;;;;;;;12.28;100.00;101388.06;5216605;28;20036;-73
2023/09/14 06:22:12;;;;;;;10.57;1.88;;;;;;;12.50;100.00;101391.75;5201584;28;20032;-73
2023/09/14 06:24:42;;;;;;;5.05;1.30;;;;;;;12.49;100.00;101402.28;5221684;28;20391;-73
2023/09/14 06:27:13;;;;;;;8.07;2.03;;;;;;;12.56;100.00;101402.06;5222091;28;20193;-73
2023/09/14 06:29:43;;;;;;;6.78;1.63;;;;;;;12.78;100.00;101404.88;5202415;28;20025;-73
2023/09/14 06:32:14;;;;;;;7.60;1.65;;;;;;;12.86;100.00;101402.88;5220231;28;20025;-73
2023/09/14 06:34:44;;;;;;;12.70;2.03;;;;;;;12.84;100.00;101405.53;5218416;28;20658;-73
2023/09/14 06:37:14;;;;;;;5.65;1.50;;;;;;;12.98;100.00;101407.78;5219943;28;20032;-73
2023/09/14 06:39:45;;;;;;;7.25;1.60;;;;;;;13.02;100.00;101411.09;5220020;28;20036;-72
2023/09/14 06:42:15;;;;;;;6.53;1.80;;;;;;;13.16;100.00;101418.50;5219698;28;20386;-72
2023/09/14 06:44:45;;;;;;;9.77;1.92;;;;;;;13.17;100.00;101420.22;5219652;28;20036;-73
2023/09/14 06:47:17;;;;;;;7.65;1.48;;;;;;;13.13;100.00;101419.50;5221110;28;20035;-72
2023/09/14 06:49:47;;;;;;;6.40;1.70;;;;;;;13.31;100.00;101424.13;5201907;28;20382;-73
2023/09/14 06:52:17;;;;;;;14.27;1.85;;;;;;;13.37;100.00;101425.72;5220624;28;20028;-73
2023/09/14 06:54:48;;;;;;;11.32;1.88;;;;;;;13.57;100.00;101425.88;5219519;28;20039;-73
2023/09/14 06:57:18;;;;;;;8.95;1.70;;;;;;;13.51;100.00;101420.81;5220259;28;20025;-73
2023/09/14 06:59:48;;;;;;;7.15;1.75;;;;;;;13.62;100.00;101418.69;5219782;28;20028;-72
2023/09/14 07:02:19;;;;;;;10.13;1.48;;;;;;;14.59;100.00;101416.88;5220561;28;20629;-73
2023/09/14 07:04:49;;;;;;;4.63;1.40;;;;;;;16.68;100.00;101404.25;5219533;28;20033;-74
2023/09/14 07:07:19;;;;;;;9.05;1.42;;;;;;;18.67;85.41;101405.28;5220354;28;20036;-74
2023/09/14 07:09:50;;;;;;;8.45;1.60;;;;;;;20.14;80.50;101399.22;5218151;28;20028;-74
2023/09/14 07:12:20;;;;;;;7.40;1.60;;;;;;;20.91;73.27;101396.00;5220349;28;20102;-75
2023/09/14 07:14:51;;;;;;;7.07;1.40;;;;;;;21.27;70.51;101390.94;5219394;28;20494;-74
2023/09/14 07:17:21;;;;;;;6.20;1.47;;;;;;;21.89;69.63;101398.22;5220784;28;20024;-75
2023/09/14 07:19:52;;;;;;;4.90;1.33;;;;;;;23.07;66.32;101400.22;5219016;28;20891;-73
2023/09/14 07:22:22;;;;;;;3.97;1.33;;;;;;;24.27;61.30;101398.91;5220062;28;20401;-74
2023/09/14 07:24:52;;;;;;;4.50;1.48;;;;;;;22.59;68.29;101406.47;5219433;28;20197;-74
2023/09/14 07:27:24;;;;;;;7.10;1.50;;;;;;;22.64;71.18;101409.66;5202793;28;20421;-74
2023/09/14 07:29:54;;;;;;;5.22;1.20;;;;;;;22.46;65.56;101429.59;5218880;28;20039;-74
2023/09/14 07:32:24;;;;;;;4.43;1.30;;;;;;;24.40;62.18;101402.31;5219831;28;20029;-74
2023/09/14 07:34:57;;;;;;;3.97;1.23;;;;;;;24.31;59.81;101406.59;5216551;28;20039;-74
2023/09/14 07:37:30;;;;;;;4.07;1.25;;;;;;;22.56;63.06;101419.19;5220547;28;20286;-74
2023/09/14 07:40:00;;;;;;;4.75;1.33;;;;;;;23.81;64.74;101406.09;5218302;28;20029;-75
2023/09/14 07:42:31;;;;;;;4.25;1.00;;;;;;;24.05;62.88;101399.75;5218069;28;20425;-74
2023/09/14 07:45:01;;;;;;;3.42;1.05;;;;;;;25.12;59.05;101406.13;5219365;28;20482;-74
2023/09/14 07:47:31;;;;;;;4.65;1.30;;;;;;;24.48;59.75;101414.13;5219506;28;20024;-74
2023/09/14 07:50:02;;;;;;;4.97;1.25;;;;;;;24.99;61.16;101415.28;5200803;28;20028;-74
2023/09/14 07:52:32;;;;;;;8.80;1.15;;;;;;;26.22;56.83;101413.63;5218470;28;20094;-74
2023/09/14 07:55:04;;;;;;;4.53;0.90;;;;;;;27.09;52.35;101417.31;5219032;28;20074;-74
2023/09/14 07:57:34;;;;;;;4.85;1.05;;;;;;;25.89;54.36;101416.53;5218576;28;20271;-74
2023/09/14 08:00:06;;;;;;;3.00;1.05;;;;;;;26.63;55.83;101420.72;5218639;28;20183;-74
2023/09/14 08:02:36;;;;;;;4.20;0.88;;;;;;;25.53;56.15;101416.09;5218230;28;20440;-74
2023/09/14 08:05:07;;;;;;;4.43;1.10;;;;;;;24.73;57.90;101423.72;5218596;28;20033;-73
2023/09/14 08:07:37;;;;;;;4.95;1.00;;;;;;;22.96;62.36;101427.69;5218891;28;20775;-74
2023/09/14 08:10:09;;;;;;;3.78;0.95;;;;;;;26.29;54.62;101420.16;5217571;28;20032;-74
2023/09/14 08:12:39;;;;;;;2.50;0.95;;;;;;;27.14;54.06;101417.78;5200353;28;20076;-73
2023/09/14 08:15:10;;;;;;;3.03;0.82;;;;;;;27.18;53.96;101424.59;5218527;28;20040;-73
2023/09/14 08:17:40;;;;;;;2.65;0.80;;;;;;;25.06;59.14;101433.38;5218987;28;20037;-74
2023/09/14 08:20:11;;;;;;;5.37;0.83;;;;;;;25.48;57.73;101429.03;5218748;28;20021;-74
2023/09/14 08:22:41;;;;;;;4.53;1.17;;;;;;;25.19;58.05;101439.47;5216264;28;20291;-74
2023/09/14 08:25:13;;;;;;;3.47;0.90;;;;;;;24.86;59.44;101433.31;5211241;28;20040;-73
2023/09/14 08:27:44;;;;;;;2.75;0.85;;;;;;;26.50;55.10;101438.91;5212073;28;20111;-72
2023/09/14 08:30:15;;;;;;;2.75;0.80;;;;;;;26.21;55.50;101441.38;5212396;28;20112;-73
2023/09/14 08:32:45;;;;;;;2.00;0.75;;;;;;;25.92;55.54;101444.88;5211464;28;20104;-72
2023/09/14 08:35:22;;;;;;;3.07;0.70;;;;;;;24.10;58.21;101452.84;5211741;28;20459;-72
2023/09/14 08:37:53;;;;;;;4.57;0.63;;;;;;;25.49;57.21;101449.47;5211380;28;20349;-72
2023/09/14 08:40:24;;;;;;;3.35;0.93;;;;;;;26.29;55.40;101448.78;5211195;28;20671;-72
2023/09/14 08:42:55;;;;;;;4.57;0.80;;;;;;;26.56;53.80;101457.13;5211279;28;20048;-72
2023/09/14 08:45:28;;;;;;;7.32;0.95;;;;;;;26.43;55.04;101459.16;5213298;28;20112;-72
2023/09/14 08:48:01;;;;;;;2.35;0.75;;;;;;;25.38;56.65;101454.84;5210970;28;20044;-73
2023/09/14 08:50:33;;;;;;;3.92;0.82;;;;;;;25.97;55.18;101445.38;5211502;28;20021;-73
2023/09/14 08:53:04;;;;;;;2.92;0.73;;;;;;;26.74;53.07;101461.75;5211416;28;20508;-72
2023/09/14 08:55:35;;;;;;;8.13;1.10;;;;;;;27.62;51.78;101453.56;5211002;28;20288;-71
2023/09/14 08:58:07;;;;;;;2.80;0.90;;;;;;;27.71;51.85;101454.56;5211466;28;21364;-72
2023/09/14 09:00:38;;;;;;;1.55;0.57;;;;;;;27.06;52.98;101467.75;5210252;28;20029;-73
2023/09/14 09:03:08;;;;;;;4.22;1.05;;;;;;;27.10;51.61;101464.69;5211411;28;20025;-72
2023/09/14 09:05:41;;;;;;;5.97;1.00;;;;;;;24.69;56.24;101467.75;5211063;28;20513;-70
2023/09/14 09:08:12;;;;;;;4.97;1.00;;;;;;;25.62;55.83;101461.69;5210360;28;20275;-70
2023/09/14 09:10:43;;;;;;;2.83;0.90;;;;;;;24.72;57.26;101459.47;5210860;28;20032;-70
2023/09/14 09:13:13;;;;;;;4.60;1.00;;;;;;;25.18;55.89;101460.97;5210140;28;20035;-71
2023/09/14 09:15:44;;;;;;;4.35;0.82;;;;;;;24.85;57.22;101458.34;5210974;28;20048;-71
2023/09/14 09:18:14;;;;;;;6.53;1.13;;;;;;;24.22;57.58;101466.09;5210895;28;20156;-69
2023/09/14 09:20:45;;;;;;;5.70;0.80;;;;;;;23.47;58.42;101469.22;5209227;28;20237;-71
2023/09/14 09:23:20;;;;;;;4.38;0.68;;;;;;;22.85;61.11;101469.44;5208790;28;20517;-71
2023/09/14 09:25:53;;;;;;;3.58;0.68;;;;;;;22.78;60.77;101466.34;5208317;28;20036;-70
2023/09/14 09:28:30;;;;;;;3.83;0.88;;;;;;;22.08;62.15;101468.72;5211331;28;20028;-71
2023/09/14 09:31:01;;;;;;;2.67;0.65;;;;;;;21.70;63.41;101459.81;5211032;28;20037;-69
2023/09/14 09:33:33;;;;;;;1.88;0.60;;;;;;;21.65;64.20;101463.72;5210001;28;20180;-72
2023/09/14 09:36:17;;;;;;;3.97;1.10;;;;;;;21.89;64.43;101467.44;5212852;28;20127;-72
2023/09/14 09:38:48;;;;;;;4.68;0.70;;;;;;;21.10;66.49;101463.81;5211685;28;20059;-73
2023/09/14 09:41:18;;;;;;;8.48;1.25;;;;;;;21.17;65.73;101461.63;5211986;28;20502;-72
2023/09/14 09:43:49;;;;;;;4.10;0.73;;;;;;;21.49;63.80;101453.25;5212580;28;20048;-73
2023/09/14 09:46:20;;;;;;;5.93;0.80;;;;;;;21.31;64.83;101461.56;5215222;28;20032;-73
2023/09/14 09:48:50;;;;;;;3.95;0.80;;;;;;;21.41;63.35;101460.03;5217998;28;20032;-73
2023/09/14 09:51:22;;;;;;;4.40;0.75;;;;;;;20.70;67.92;101471.75;5216883;28;20016;-74
2023/09/14 09:54:06;;;;;;;1.17;0.50;;;;;;;20.71;70.29;101468.16;5217712;28;20021;-72
2023/09/14 09:56:38;;;;;;;3.35;0.75;;;;;;;20.56;67.39;101463.81;5216719;28;20051;-74
2023/09/14 09:59:13;;;;;;;2.65;0.75;;;;;;;20.21;68.24;101469.56;5216619;28;20039;-74
2023/09/14 10:01:47;;;;;;;4.97;0.70;;;;;;;20.61;67.90;101463.53;5214617;28;20032;-73
2023/09/14 10:04:18;;;;;;;2.47;0.75;;;;;;;20.76;67.47;101464.22;5216960;28;20041;-71
2023/09/14 10:06:55;;;;;;;1.85;0.60;;;;;;;20.58;65.94;101466.34;5216946;28;20091;-71
2023/09/14 10:09:33;;;;;;;6.70;0.80;;;;;;;20.54;67.11;101455.06;5216910;28;20122;-71
2023/09/14 10:12:04;;;;;;;2.60;0.63;;;;;;;20.13;66.91;101454.09;5215775;28;20017;-71
2023/09/14 10:14:37;;;;;;;2.00;0.60;;;;;;;19.95;67.07;101468.44;5216394;28;20029;-71
2023/09/14 10:17:11;;;;;;;4.50;0.82;;;;;;;19.76;68.11;101459.88;5216417;28;20021;-71
2023/09/14 10:19:47;;;;;;;2.80;0.60;;;;;;;19.74;68.05;101452.94;5214244;28;20041;-70
2023/09/14 10:22:21;;;;;;;3.85;0.77;;;;;;;19.85;68.62;101447.88;5217001;28;20021;-71
2023/09/14 10:24:53;;;;;;;3.55;0.70;;;;;;;19.90;69.41;101451.97;5216291;28;20044;-71
2023/09/14 10:27:25;;;;;;;2.47;0.60;;;;;;;20.38;67.05;101442.81;5215498;28;20029;-70
2023/09/14 10:29:56;;;;;;;5.40;1.33;;;;;;;20.67;66.84;101445.34;5214451;28;20059;-70
2023/09/14 10:32:29;;;;;;;4.20;0.70;;;;;;;20.15;68.45;101449.53;5200573;28;20067;-71
2023/09/14 10:35:03;;;;;;;3.35;0.68;;;;;;;20.25;67.05;101452.50;5200916;28;20054;-71
2023/09/14 10:37:35;;;;;;;4.05;0.52;;;;;;;20.37;66.93;101451.75;5220190;28;20359;-71
2023/09/14 10:40:08;;;;;;;5.00;0.68;;;;;;;20.63;68.32;101443.84;5214574;28;20021;-71
2023/09/14 10:42:40;;;;;;;4.43;0.80;;;;;;;20.67;66.76;101445.34;5217651;28;20050;-71
2023/09/14 10:45:12;;;;;;;3.72;0.50;;;;;;;20.66;66.59;101438.34;5214586;28;20064;-71
2023/09/14 10:47:47;;;;;;;2.78;0.65;;;;;;;20.67;64.55;101440.03;5216380;28;20304;-71
2023/09/14 10:50:21;;;;;;;2.03;0.50;;;;;;;20.41;67.53;101438.19;5216391;28;20425;-71
2023/09/14 10:52:53;;;;;;;5.20;0.70;;;;;;;19.70;67.90;101438.16;5216024;28;20037;-73
2023/09/14 10:55:25;;;;;;;3.08;0.43;;;;;;;19.75;67.38;101428.16;5216610;28;20028;-71
2023/09/14 10:57:59;;;;;;;3.00;0.77;;;;;;;19.68;67.09;101425.00;5216224;28;20029;-71
2023/09/14 11:00:38;;;;;;;2.55;0.70;;;;;;;19.58;65.90;101423.81;5214715;28;20028;-70
2023/09/14 11:03:09;;;;;;;8.32;1.25;;;;;;;19.62;68.01;101420.03;5215291;28;20128;-71
2023/09/14 11:05:47;;;;;;;3.55;0.75;;;;;;;20.01;69.35;101422.13;5213751;28;20104;-71
2023/09/14 11:08:19;;;;;;;2.15;0.55;;;;;;;19.81;67.75;101418.00;5216457;28;20029;-71
2023/09/14 11:10:58;;;;;;;3.60;0.50;;;;;;;19.59;68.13;101417.56;5219542;28;20094;-70
2023/09/14 11:13:32;;;;;;;2.97;0.60;;;;;;;18.96;71.69;101418.59;5219536;28;20070;-70
2023/09/14 11:16:16;;;;;;;3.05;0.70;;;;;;;19.13;69.66;101407.91;5237333;22;20053;-75
2023/09/14 11:18:47;;;;;;;3.08;0.50;;;;;;;19.28;69.49;101404.41;5196655;28;20121;-75
2023/09/14 11:21:42;;;;;;;2.90;0.82;;;;;;;19.13;68.98;101415.00;5179111;28;20461;-76
2023/09/14 11:24:12;;;;;;;3.72;0.80;;;;;;;19.20;67.78;101406.66;5196870;28;20033;-75
2023/09/14 11:26:45;;;;;;;3.40;0.60;;;;;;;19.29;67.44;101410.56;5193062;28;20053;-75
2023/09/14 11:29:19;;;;;;;4.10;1.05;;;;;;;19.28;68.69;101409.69;5183954;28;20096;-75
2023/09/14 11:32:01;;;;;;;3.35;0.70;;;;;;;19.46;69.28;101411.28;5182632;28;20029;-75
2023/09/14 11:34:32;;;;;;;4.57;0.80;;;;;;;19.54;67.45;101409.03;5182331;28;20458;-76
2023/09/14 11:37:05;;;;;;;2.47;0.63;;;;;;;19.41;66.36;101405.41;5182969;28;20668;-72
2023/09/14 11:39:40;;;;;;;4.35;0.90;;;;;;;19.43;67.47;101405.31;5168143;28;20034;-76